createdAt,value
2022-11-24T00:01:17.925Z,101304.97
2022-11-24T00:03:46.614Z,101313.56
2022-11-24T00:06:15.864Z,101313.94
2022-11-24T00:08:44.486Z,101320.13
2022-11-24T00:11:14.160Z,101326.19
2022-11-24T00:13:41.486Z,101318.41
2022-11-24T00:16:12.305Z,101308.59
2022-11-24T00:18:40.289Z,101322.88
2022-11-24T00:21:07.446Z,101314.22
2022-11-24T00:23:35.202Z,101302.44
2022-11-24T00:26:12.014Z,101308.41
2022-11-24T00:28:39.669Z,101316.63
2022-11-24T00:31:19.103Z,101319.31
2022-11-24T00:33:50.604Z,101324.19
2022-11-24T00:36:18.819Z,101322.66
2022-11-24T00:38:46.190Z,101330.22
2022-11-24T00:41:13.449Z,101325.00
2022-11-24T00:43:40.357Z,101324.16
2022-11-24T00:46:07.145Z,101330.34
2022-11-24T00:48:33.920Z,101332.56
2022-11-24T00:51:03.182Z,101325.66
2022-11-24T00:53:30.388Z,101328.22
2022-11-24T00:55:57.338Z,101331.28
2022-11-24T00:58:24.824Z,101331.53
2022-11-24T01:00:52.417Z,101336.88
2022-11-24T01:03:20.707Z,101347.25
2022-11-24T01:05:47.390Z,101346.97
2022-11-24T01:08:15.295Z,101336.06
2022-11-24T01:10:41.933Z,101338.22
2022-11-24T01:13:08.650Z,101340.50
2022-11-24T01:15:36.307Z,101346.16
2022-11-24T01:18:04.154Z,101347.63
2022-11-24T01:20:31.492Z,101348.63
2022-11-24T01:22:58.218Z,101349.09
2022-11-24T01:25:24.953Z,101346.13
2022-11-24T01:27:51.904Z,101350.19
2022-11-24T01:30:18.673Z,101344.75
2022-11-24T01:32:45.362Z,101341.19
2022-11-24T01:35:11.987Z,101341.63
2022-11-24T01:37:38.707Z,101339.59
2022-11-24T01:40:06.097Z,101347.63
2022-11-24T01:42:52.515Z,101348.06
2022-11-24T01:45:42.292Z,101362.00
2022-11-24T01:48:41.067Z,101369.28
2022-11-24T01:51:17.413Z,101366.44
2022-11-24T01:53:49.152Z,101366.44
2022-11-24T01:56:15.968Z,101368.72
2022-11-24T01:58:46.583Z,101376.28
2022-11-24T02:01:13.689Z,101373.16
2022-11-24T02:03:44.034Z,101382.66
2022-11-24T02:06:18.817Z,101386.34
2022-11-24T02:08:58.145Z,101387.25
2022-11-24T02:11:28.517Z,101380.16
2022-11-24T02:13:57.141Z,101377.31
2022-11-24T02:16:23.868Z,101375.34
2022-11-24T02:18:51.172Z,101368.63
2022-11-24T02:21:18.352Z,101374.81
2022-11-24T02:23:55.784Z,101378.16
2022-11-24T02:26:37.748Z,101378.94
2022-11-24T02:29:04.410Z,101384.72
2022-11-24T02:31:31.273Z,101381.44
2022-11-24T02:33:58.284Z,101384.53
2022-11-24T02:36:24.969Z,101388.84
2022-11-24T02:38:51.594Z,101392.00
2022-11-24T02:41:21.784Z,101404.47
2022-11-24T02:43:54.424Z,101413.13
2022-11-24T02:46:21.475Z,101409.72
2022-11-24T02:48:48.257Z,101416.63
2022-11-24T02:51:14.938Z,101422.16
2022-11-24T02:53:41.620Z,101425.41
2022-11-24T02:56:08.223Z,101414.34
2022-11-24T02:58:34.816Z,101411.50
2022-11-24T03:01:01.408Z,101417.69
2022-11-24T03:03:28.190Z,101430.28
2022-11-24T03:05:54.891Z,101428.47
2022-11-24T03:08:21.651Z,101439.56
2022-11-24T03:10:49.173Z,101443.34
2022-11-24T03:13:15.963Z,101441.81
2022-11-24T03:15:42.694Z,101435.69
2022-11-24T03:18:09.512Z,101443.97
2022-11-24T03:20:36.317Z,101437.56
2022-11-24T03:23:02.947Z,101445.88
2022-11-24T03:25:29.594Z,101451.84
2022-11-24T03:27:58.320Z,101453.50
2022-11-24T03:30:25.065Z,101456.47
2022-11-24T03:32:53.693Z,101465.56
2022-11-24T03:35:23.824Z,101469.56
2022-11-24T03:37:50.476Z,101456.28
2022-11-24T03:40:18.123Z,101456.47
2022-11-24T03:42:44.792Z,101454.06
2022-11-24T03:45:37.900Z,101464.59
2022-11-24T03:47:58.056Z,101457.59
2022-11-24T03:50:24.685Z,101462.28
2022-11-24T03:52:51.323Z,101464.13
2022-11-24T03:55:17.973Z,101468.09
2022-11-24T03:57:44.609Z,101478.50
2022-11-24T04:00:11.968Z,101479.63
2022-11-24T04:02:38.748Z,101475.75
2022-11-24T04:05:06.265Z,101476.56
2022-11-24T04:07:33.030Z,101476.56
2022-11-24T04:09:59.696Z,101488.94
2022-11-24T04:12:44.653Z,101487.19
2022-11-24T04:15:14.345Z,101486.81
2022-11-24T04:17:41.112Z,101492.16
2022-11-24T04:20:08.890Z,101503.03
2022-11-24T04:22:35.917Z,101496.66
2022-11-24T04:25:03.493Z,101499.53
2022-11-24T04:27:30.162Z,101501.00
2022-11-24T04:29:56.883Z,101497.16
2022-11-24T04:32:23.697Z,101499.81
2022-11-24T04:34:50.316Z,101510.31
2022-11-24T04:37:17.031Z,101507.19
2022-11-24T04:39:44.891Z,101505.91
2022-11-24T04:42:11.557Z,101504.69
2022-11-24T04:44:38.597Z,101511.25
2022-11-24T04:47:05.644Z,101515.94
2022-11-24T04:49:32.649Z,101506.97
2022-11-24T04:51:59.379Z,101514.63
2022-11-24T04:54:26.071Z,101515.63
2022-11-24T04:56:53.148Z,101508.34
2022-11-24T04:59:20.189Z,101510.16
2022-11-24T05:01:47.612Z,101522.06
2022-11-24T05:04:15.820Z,101520.78
2022-11-24T05:06:42.901Z,101515.63
2022-11-24T05:09:14.654Z,101516.81
2022-11-24T05:11:41.995Z,101519.84
2022-11-24T05:14:08.695Z,101529.41
2022-11-24T05:16:36.010Z,101525.94
2022-11-24T05:19:02.792Z,101541.13
2022-11-24T05:21:29.408Z,101537.78
2022-11-24T05:23:56.063Z,101539.63
2022-11-24T05:26:22.724Z,101538.47
2022-11-24T05:28:49.391Z,101543.28
2022-11-24T05:31:16.104Z,101556.28
2022-11-24T05:33:43.352Z,101554.16
2022-11-24T05:36:30.307Z,101552.50
2022-11-24T05:38:57.308Z,101556.13
2022-11-24T05:41:23.910Z,101546.97
2022-11-24T05:43:50.533Z,101559.34
2022-11-24T05:46:17.330Z,101565.69
2022-11-24T05:48:44.159Z,101560.00
2022-11-24T05:51:10.740Z,101560.66
2022-11-24T05:53:37.415Z,101569.38
2022-11-24T05:56:04.906Z,101565.03
2022-11-24T05:58:31.662Z,101565.34
2022-11-24T06:00:58.328Z,101572.34
2022-11-24T06:03:24.943Z,101569.84
2022-11-24T06:05:51.604Z,101577.22
2022-11-24T06:08:18.280Z,101588.91
2022-11-24T06:10:44.835Z,101585.09
2022-11-24T06:13:11.500Z,101581.75
2022-11-24T06:15:38.611Z,101591.94
2022-11-24T06:18:05.261Z,101593.81
2022-11-24T06:20:33.124Z,101589.03
2022-11-24T06:23:00.573Z,101604.38
2022-11-24T06:25:27.688Z,101599.66
2022-11-24T06:27:54.332Z,101599.53
2022-11-24T06:30:21.017Z,101590.81
2022-11-24T06:32:49.920Z,101593.66
2022-11-24T06:35:16.909Z,101599.78
2022-11-24T06:37:43.646Z,101600.28
2022-11-24T06:40:10.617Z,101597.28
2022-11-24T06:42:37.675Z,101591.78
2022-11-24T06:45:09.055Z,101595.09
2022-11-24T06:47:37.261Z,101593.75
2022-11-24T06:50:04.651Z,101595.41
2022-11-24T06:52:31.244Z,101597.63
2022-11-24T06:54:57.809Z,101602.78
2022-11-24T06:57:24.467Z,101607.81
2022-11-24T06:59:51.095Z,101610.78
2022-11-24T07:02:17.644Z,101612.59
2022-11-24T07:04:44.280Z,101617.97
2022-11-24T07:07:11.016Z,101622.31
2022-11-24T07:09:37.684Z,101622.50
2022-11-24T07:12:05.886Z,101611.66
2022-11-24T07:14:32.729Z,101621.66
2022-11-24T07:16:59.777Z,101625.78
2022-11-24T07:19:26.448Z,101643.50
2022-11-24T07:21:53.040Z,101639.50
2022-11-24T07:24:19.803Z,101635.81
2022-11-24T07:26:46.451Z,101638.00
2022-11-24T07:29:13.068Z,101638.03
2022-11-24T07:31:39.815Z,101636.03
2022-11-24T07:34:06.553Z,101643.50
2022-11-24T07:36:33.193Z,101654.19
2022-11-24T07:39:00.012Z,101658.56
2022-11-24T07:41:26.689Z,101656.72
2022-11-24T07:43:53.388Z,101662.06
2022-11-24T07:46:20.646Z,101662.88
2022-11-24T07:48:47.783Z,101665.53
2022-11-24T07:51:15.867Z,101667.34
2022-11-24T07:53:42.715Z,101665.81
2022-11-24T07:56:09.838Z,101663.09
2022-11-24T07:58:37.889Z,101659.50
2022-11-24T08:01:12.633Z,101657.06
2022-11-24T08:03:39.806Z,101666.88
2022-11-24T08:06:24.018Z,101667.47
2022-11-24T08:08:53.053Z,101669.03
2022-11-24T08:11:19.739Z,101673.50
2022-11-24T08:13:46.518Z,101677.75
2022-11-24T08:16:15.974Z,101678.25
2022-11-24T08:18:43.339Z,101675.63
2022-11-24T08:21:14.202Z,101682.78
2022-11-24T08:23:41.567Z,101684.91
2022-11-24T08:26:13.610Z,101688.25
2022-11-24T08:28:40.158Z,101697.16
2022-11-24T08:31:18.946Z,101698.66
2022-11-24T08:33:46.236Z,101696.78
2022-11-24T08:36:17.131Z,101705.81
2022-11-24T08:38:44.994Z,101707.09
2022-11-24T08:41:14.330Z,101709.88
2022-11-24T08:43:41.429Z,101702.69
2022-11-24T08:46:11.153Z,101701.41
2022-11-24T08:48:38.036Z,101696.53
2022-11-24T08:51:11.012Z,101707.28
2022-11-24T08:53:38.186Z,101714.41
2022-11-24T08:56:06.055Z,101716.72
2022-11-24T08:58:33.707Z,101719.31
2022-11-24T09:01:14.943Z,101722.81
2022-11-24T09:03:48.592Z,101715.91
2022-11-24T09:06:18.576Z,101724.38
2022-11-24T09:08:45.159Z,101735.56
2022-11-24T09:11:15.213Z,101725.97
2022-11-24T09:13:42.519Z,101728.00
2022-11-24T09:16:12.343Z,101716.34
2022-11-24T09:18:39.429Z,101709.59
2022-11-24T09:21:10.680Z,101700.00
2022-11-24T09:23:37.887Z,101703.13
2022-11-24T09:26:11.999Z,101691.69
2022-11-24T09:28:38.785Z,101685.00
2022-11-24T09:31:08.484Z,101685.75
2022-11-24T09:33:35.770Z,101686.47
2022-11-24T09:36:03.436Z,101686.97
2022-11-24T09:38:30.071Z,101691.97
2022-11-24T09:41:05.732Z,101686.16
2022-11-24T09:43:46.162Z,101681.50
2022-11-24T09:46:41.236Z,101684.00
2022-11-24T09:49:15.454Z,101695.63
2022-11-24T09:51:46.790Z,101702.50
2022-11-24T09:54:18.433Z,101710.00
2022-11-24T09:56:46.436Z,101717.63
2022-11-24T09:59:19.819Z,101724.00
2022-11-24T10:01:47.822Z,101721.03
2022-11-24T10:04:18.347Z,101723.09
2022-11-24T10:07:12.992Z,101719.19
2022-11-24T10:10:14.124Z,101715.19
2022-11-24T10:12:49.828Z,101714.09
2022-11-24T10:15:31.008Z,101703.28
2022-11-24T10:17:57.596Z,101694.41
2022-11-24T10:20:54.828Z,101691.47
2022-11-24T10:23:41.252Z,101696.63
2022-11-24T10:26:19.163Z,101695.06
2022-11-24T10:28:53.651Z,101688.59
2022-11-24T10:31:40.724Z,101689.81
2022-11-24T10:34:18.597Z,101673.84
2022-11-24T10:36:57.163Z,101678.81
2022-11-24T10:39:34.715Z,101674.84
2022-11-24T10:42:28.064Z,101672.91
2022-11-24T10:45:03.063Z,101676.00
2022-11-24T10:47:30.752Z,101667.41
2022-11-24T10:50:04.949Z,101667.81
2022-11-24T10:52:40.287Z,101665.34
2022-11-24T10:55:07.314Z,101658.97
2022-11-24T10:57:36.496Z,101653.47
2022-11-24T11:00:25.942Z,101658.38
2022-11-24T11:03:12.046Z,101656.41
2022-11-24T11:05:43.980Z,101643.28
2022-11-24T11:08:24.090Z,101647.84
2022-11-24T11:11:11.896Z,101640.03
2022-11-24T11:13:38.506Z,101630.97
2022-11-24T11:16:23.606Z,101637.66
2022-11-24T11:18:50.367Z,101621.81
2022-11-24T11:21:35.191Z,101614.66
2022-11-24T11:24:05.254Z,101614.72
2022-11-24T11:26:36.313Z,101606.50
2022-11-24T11:35:03.024Z,101592.53
2022-11-24T11:37:32.822Z,101593.56
2022-11-24T11:40:00.502Z,101578.88
2022-11-24T11:43:00.777Z,101576.78
2022-11-24T11:45:28.397Z,101572.03
2022-11-24T11:48:17.784Z,101567.25
2022-11-24T11:51:23.449Z,101562.72
2022-11-24T11:54:16.979Z,101561.66
2022-11-24T11:56:50.303Z,101557.72
2022-11-24T11:59:41.587Z,101562.31
2022-11-24T12:02:26.612Z,101555.47
2022-11-24T12:04:54.174Z,101540.09
2022-11-24T12:07:52.504Z,101531.59
2022-11-24T12:10:42.724Z,101526.44
2022-11-24T12:13:48.550Z,101523.72
2022-11-24T12:16:45.612Z,101519.34
2022-11-24T12:19:31.921Z,101524.94
2022-11-24T12:22:04.507Z,101507.09
2022-11-24T12:24:45.028Z,101506.19
2022-11-24T12:27:22.822Z,101502.69
2022-11-24T12:29:53.063Z,101497.88
2022-11-24T12:32:41.352Z,101501.56
2022-11-24T12:35:39.333Z,101500.56
2022-11-24T12:38:40.167Z,101488.84
2022-11-24T12:41:39.780Z,101488.03
2022-11-24T12:44:00.935Z,101472.75
2022-11-24T12:46:36.761Z,101468.44
2022-11-24T12:49:18.833Z,101469.25
2022-11-24T12:51:52.414Z,101461.22
2022-11-24T12:54:21.144Z,101455.91
2022-11-24T12:57:06.912Z,101452.16
2022-11-24T13:00:06.068Z,101444.50
2022-11-24T13:02:44.628Z,101442.69
2022-11-24T13:05:46.376Z,101452.63
2022-11-24T13:08:14.795Z,101445.59
2022-11-24T13:10:57.997Z,101439.59
2022-11-24T13:13:57.050Z,101437.72
2022-11-24T13:16:53.669Z,101437.34
2022-11-24T13:19:22.525Z,101431.09
2022-11-24T13:21:52.721Z,101424.69
2022-11-24T13:24:24.167Z,101413.72
2022-11-24T13:26:52.331Z,101404.84
2022-11-24T13:29:28.295Z,101397.16
2022-11-24T13:31:56.015Z,101399.22
2022-11-24T13:34:43.727Z,101394.91
2022-11-24T13:37:31.485Z,101394.69
2022-11-24T13:40:22.651Z,101401.31
2022-11-24T13:42:55.364Z,101403.97
2022-11-24T13:45:41.528Z,101392.44
2022-11-24T13:48:20.829Z,101373.41
2022-11-24T13:50:50.911Z,101363.47
2022-11-24T13:53:31.945Z,101364.69
2022-11-24T13:56:02.775Z,101362.66
2022-11-24T13:58:32.457Z,101360.38
2022-11-24T14:01:02.024Z,101355.84
2022-11-24T14:03:35.194Z,101358.28
2022-11-24T14:06:03.114Z,101361.41
2022-11-24T14:08:36.339Z,101359.13
2022-11-24T14:11:11.252Z,101354.75
2022-11-24T14:13:37.824Z,101361.38
2022-11-24T14:16:04.550Z,101364.47
2022-11-24T14:18:33.335Z,101360.31
2022-11-24T14:21:14.876Z,101365.91
2022-11-24T14:23:44.618Z,101361.97
2022-11-24T14:26:23.168Z,101363.00
2022-11-24T14:28:50.493Z,101356.81
2022-11-24T14:31:25.671Z,101353.28
2022-11-24T14:34:12.310Z,101362.19
2022-11-24T14:36:39.587Z,101354.53
2022-11-24T14:39:06.888Z,101353.06
2022-11-24T14:41:34.341Z,101353.09
2022-11-24T14:44:07.472Z,101352.03
2022-11-24T14:46:35.221Z,101349.75
2022-11-24T14:49:03.350Z,101343.13
2022-11-24T14:51:35.836Z,101336.94
2022-11-24T14:54:06.277Z,101341.06
2022-11-24T14:56:36.135Z,101333.59
2022-11-24T14:59:04.520Z,101338.34
2022-11-24T15:01:34.972Z,101334.22
2022-11-24T15:07:22.906Z,101345.38
2022-11-24T15:09:53.113Z,101338.16
2022-11-24T15:12:28.968Z,101337.94
2022-11-24T15:15:18.057Z,101345.38
2022-11-24T15:18:00.236Z,101339.63
2022-11-24T15:20:30.228Z,101343.78
2022-11-24T15:23:23.135Z,101339.84
2022-11-24T15:25:51.836Z,101334.28
2022-11-24T15:28:19.622Z,101348.75
2022-11-24T15:30:46.210Z,101336.16
2022-11-24T15:33:15.744Z,101335.31
2022-11-24T15:35:42.588Z,101325.78
2022-11-24T15:38:09.728Z,101330.13
2022-11-24T15:40:40.810Z,101331.81
2022-11-24T15:43:36.798Z,101327.88
2022-11-24T15:46:04.734Z,101320.47
2022-11-24T15:48:31.856Z,101322.31
2022-11-24T15:51:01.144Z,101322.09
2022-11-24T15:53:32.196Z,101323.13
2022-11-24T15:56:00.135Z,101330.38
2022-11-24T15:58:26.730Z,101328.94
2022-11-24T16:00:53.799Z,101316.53
2022-11-24T16:06:12.820Z,101307.22
2022-11-24T16:08:39.351Z,101310.97
2022-11-24T16:11:06.087Z,101313.03
2022-11-24T16:13:32.721Z,101315.91
2022-11-24T16:15:59.583Z,101317.38
2022-11-24T16:18:26.234Z,101328.31
2022-11-24T16:20:52.875Z,101325.03
2022-11-24T16:23:19.466Z,101331.44
2022-11-24T16:25:46.160Z,101337.03
2022-11-24T16:28:12.819Z,101336.59
2022-11-24T16:30:39.443Z,101331.84
2022-11-24T16:33:06.729Z,101331.22
2022-11-24T16:35:33.989Z,101329.38
2022-11-24T16:38:00.634Z,101316.53
2022-11-24T16:40:27.183Z,101328.94
2022-11-24T16:42:56.245Z,101327.28
2022-11-24T16:45:22.911Z,101323.34
2022-11-24T16:47:49.551Z,101326.25
2022-11-24T16:50:16.232Z,101331.84
2022-11-24T16:52:42.900Z,101321.50
2022-11-24T16:55:11.677Z,101324.00
2022-11-24T16:57:38.339Z,101334.75
2022-11-24T17:00:06.171Z,101326.25
2022-11-24T17:02:34.100Z,101332.84
2022-11-24T17:05:00.989Z,101333.06
2022-11-24T17:07:27.664Z,101334.72
2022-11-24T17:09:54.404Z,101339.66
2022-11-24T17:12:21.010Z,101336.38
2022-11-24T17:15:09.385Z,101349.81
2022-11-24T17:17:34.512Z,101349.81
2022-11-24T17:20:01.131Z,101342.16
2022-11-24T17:22:28.019Z,101344.22
2022-11-24T17:24:54.603Z,101344.41
2022-11-24T17:27:21.163Z,101346.66
2022-11-24T17:29:47.801Z,101347.09
2022-11-24T17:32:14.464Z,101353.50
2022-11-24T17:34:41.159Z,101349.56
2022-11-24T17:37:07.783Z,101335.94
2022-11-24T17:39:34.389Z,101326.25
2022-11-24T17:42:01.037Z,101321.06
2022-11-24T17:44:27.698Z,101311.38
2022-11-24T17:46:54.335Z,101309.91
2022-11-24T17:49:21.261Z,101305.78
2022-11-24T17:51:50.549Z,101310.13
2022-11-24T17:57:05.121Z,101323.13
2022-11-24T17:59:31.743Z,101319.81
2022-11-24T18:01:58.459Z,101314.47
2022-11-24T18:04:25.099Z,101319.81
2022-11-24T18:06:51.725Z,101330.13
2022-11-24T18:09:18.281Z,101319.78
2022-11-24T18:11:45.072Z,101329.06
2022-11-24T18:14:11.684Z,101321.63
2022-11-24T18:16:38.436Z,101327.44
2022-11-24T18:19:10.751Z,101334.06
2022-11-24T18:21:42.231Z,101330.13
2022-11-24T18:24:10.654Z,101345.56
2022-11-24T18:26:38.075Z,101341.31
2022-11-24T18:29:04.934Z,101342.06
2022-11-24T18:31:32.390Z,101339.00
2022-11-24T18:33:59.298Z,101331.38
2022-11-24T18:36:30.286Z,101342.94
2022-11-24T18:39:01.991Z,101347.91
2022-11-24T18:41:28.928Z,101352.88
2022-11-24T18:43:55.568Z,101344.16
2022-11-24T18:46:22.302Z,101352.44
2022-11-24T18:48:49.112Z,101353.69
2022-11-24T18:51:15.841Z,101338.78
2022-11-24T18:53:44.292Z,101349.53
2022-11-24T18:56:16.491Z,101356.38
2022-11-24T18:58:44.091Z,101358.66
2022-11-24T19:01:16.031Z,101351.44
2022-11-24T19:03:48.640Z,101359.28
2022-11-24T19:06:20.053Z,101371.88
2022-11-24T19:08:47.108Z,101368.56
2022-11-24T19:11:18.828Z,101355.78
2022-11-24T19:13:45.468Z,101358.25
2022-11-24T19:16:12.668Z,101354.50
2022-11-24T19:18:39.640Z,101355.16
2022-11-24T19:21:06.847Z,101361.34
2022-11-24T19:23:33.543Z,101374.38
2022-11-24T19:26:04.613Z,101379.75
2022-11-24T19:28:31.383Z,101378.69
2022-11-24T19:31:01.726Z,101373.72
2022-11-24T19:33:28.349Z,101360.72
2022-11-24T19:36:27.523Z,101363.00
2022-11-24T19:38:56.176Z,101355.97
2022-11-24T19:41:26.045Z,101352.47
2022-11-24T19:43:55.689Z,101350.00
2022-11-24T19:46:26.246Z,101354.53
2022-11-24T19:48:59.786Z,101347.53
2022-11-24T19:51:31.882Z,101348.56
2022-11-24T19:53:59.243Z,101358.28
2022-11-24T19:56:31.476Z,101349.56
2022-11-24T19:58:58.028Z,101346.47
2022-11-24T20:01:30.606Z,101353.94
2022-11-24T20:04:03.554Z,101358.28
2022-11-24T20:06:51.548Z,101339.25
2022-11-24T20:09:18.534Z,101348.56
2022-11-24T20:11:45.518Z,101357.22
2022-11-24T20:14:13.533Z,101350.00
2022-11-24T20:16:40.756Z,101346.47
2022-11-24T20:19:12.343Z,101343.78
2022-11-24T20:21:40.106Z,101344.63
2022-11-24T20:24:10.956Z,101341.09
2022-11-24T20:26:43.419Z,101330.16
2022-11-24T20:29:12.880Z,101326.44
2022-11-24T20:31:42.093Z,101327.69
2022-11-24T20:34:09.272Z,101327.47
2022-11-24T20:36:38.299Z,101328.31
2022-11-24T20:39:09.701Z,101328.53
2022-11-24T20:41:39.638Z,101327.06
2022-11-24T20:44:08.853Z,101318.38
2022-11-24T20:46:37.969Z,101321.06
2022-11-24T20:49:06.611Z,101316.09
2022-11-24T20:51:36.536Z,101324.38
2022-11-24T20:54:06.599Z,101327.25
2022-11-24T20:56:39.835Z,101323.13
2022-11-24T20:59:07.478Z,101321.88
2022-11-24T21:01:40.026Z,101325.59
2022-11-24T21:04:09.801Z,101327.78
2022-11-24T21:06:37.273Z,101327.38
2022-11-24T21:09:05.754Z,101336.47
2022-11-24T21:11:32.857Z,101335.22
2022-11-24T21:14:00.842Z,101347.22
2022-11-24T21:16:30.284Z,101355.84
2022-11-24T21:18:59.288Z,101350.25
2022-11-24T21:21:33.290Z,101359.94
2022-11-24T21:24:01.613Z,101357.88
2022-11-24T21:26:28.317Z,101368.16
2022-11-24T21:28:55.000Z,101365.00
2022-11-24T21:31:23.386Z,101359.63
2022-11-24T21:33:54.521Z,101360.81
2022-11-24T21:36:23.803Z,101364.59
2022-11-24T21:38:55.143Z,101365.44
2022-11-24T21:41:23.134Z,101360.81
2022-11-24T21:43:50.326Z,101360.81
2022-11-24T21:46:17.535Z,101361.00
2022-11-24T21:48:44.835Z,101345.94
2022-11-24T21:51:16.350Z,101357.72
2022-11-24T21:53:44.727Z,101362.28
2022-11-24T21:56:17.112Z,101361.22
2022-11-24T21:58:55.329Z,101367.97
2022-11-24T22:01:25.968Z,101370.63
2022-11-24T22:03:53.010Z,101369.03
2022-11-24T22:06:20.833Z,101372.19
2022-11-24T22:08:48.907Z,101368.44
2022-11-24T22:11:18.447Z,101367.44
2022-11-24T22:13:45.676Z,101361.66
2022-11-24T22:16:15.389Z,101364.09
2022-11-24T22:18:43.539Z,101364.09
2022-11-24T22:21:18.570Z,101362.44
2022-11-24T22:23:45.514Z,101367.59
2022-11-24T22:26:15.280Z,101368.44
2022-11-24T22:28:43.404Z,101361.47
2022-11-24T22:31:24.001Z,101360.44
2022-11-24T22:33:51.837Z,101359.84
2022-11-24T22:36:23.263Z,101356.13
2022-11-24T22:38:57.564Z,101360.03
2022-11-24T22:41:25.953Z,101347.25
2022-11-24T22:43:53.573Z,101350.78
2022-11-24T22:46:26.140Z,101354.25
2022-11-24T22:48:54.348Z,101354.91
2022-11-24T22:51:23.448Z,101359.88
2022-11-24T22:53:52.891Z,101348.50
2022-11-24T22:56:20.338Z,101371.19
2022-11-24T22:58:47.647Z,101367.28
2022-11-24T23:01:19.684Z,101357.38
2022-11-24T23:03:46.852Z,101344.75
2022-11-24T23:06:15.972Z,101335.25
2022-11-24T23:08:43.627Z,101327.00
2022-11-24T23:11:16.352Z,101340.81
2022-11-24T23:13:43.207Z,101335.25
2022-11-24T23:16:11.392Z,101333.56
2022-11-24T23:18:38.749Z,101341.03
2022-11-24T23:21:14.405Z,101337.94
2022-11-24T23:23:44.293Z,101335.41
2022-11-24T23:26:16.462Z,101327.81
2022-11-24T23:28:45.278Z,101334.84
2022-11-24T23:31:15.005Z,101332.34
2022-11-24T23:33:42.237Z,101332.78
2022-11-24T23:36:12.593Z,101324.53
2022-11-24T23:38:40.757Z,101330.53
2022-11-24T23:41:13.412Z,101338.78
2022-11-24T23:43:42.387Z,101338.34
2022-11-24T23:46:11.741Z,101341.63
2022-11-24T23:48:42.036Z,101337.06
2022-11-24T23:51:16.709Z,101323.88
2022-11-24T23:53:44.322Z,101323.41
2022-11-24T23:56:21.963Z,101334.34
2022-11-24T23:58:49.006Z,101319.53
